sensor_id;sensor_type;location;lat;lon;timestamp;P1;durP1;ratioP1;P2;durP2;ratioP2
51814;SDS011;37874;53.158;6.766;2023-03-14T00:01:50;11.13;;;2.55;;
51814;SDS011;37874;53.158;6.766;2023-03-14T00:04:16;7.57;;;2.20;;
51814;SDS011;37874;53.158;6.766;2023-03-14T00:06:42;6.57;;;2.00;;
51814;SDS011;37874;53.158;6.766;2023-03-14T00:09:07;7.07;;;2.47;;
51814;SDS011;37874;53.158;6.766;2023-03-14T00:11:33;7.43;;;1.98;;
51814;SDS011;37874;53.158;6.766;2023-03-14T00:13:59;7.32;;;2.20;;
51814;SDS011;37874;53.158;6.766;2023-03-14T00:16:26;6.35;;;2.20;;
51814;SDS011;37874;53.158;6.766;2023-03-14T00:18:52;9.98;;;2.15;;
51814;SDS011;37874;53.158;6.766;2023-03-14T00:21:18;7.78;;;2.33;;
51814;SDS011;37874;53.158;6.766;2023-03-14T00:23:43;8.35;;;2.20;;
51814;SDS011;37874;53.158;6.766;2023-03-14T00:26:13;5.82;;;2.00;;
51814;SDS011;37874;53.158;6.766;2023-03-14T00:28:42;7.07;;;2.03;;
51814;SDS011;37874;53.158;6.766;2023-03-14T00:31:09;7.38;;;1.95;;
51814;SDS011;37874;53.158;6.766;2023-03-14T00:33:36;5.65;;;1.92;;
51814;SDS011;37874;53.158;6.766;2023-03-14T00:36:03;5.72;;;1.95;;
51814;SDS011;37874;53.158;6.766;2023-03-14T00:38:31;6.00;;;2.13;;
51814;SDS011;37874;53.158;6.766;2023-03-14T00:40:58;8.38;;;2.15;;
51814;SDS011;37874;53.158;6.766;2023-03-14T00:43:24;7.57;;;2.05;;
51814;SDS011;37874;53.158;6.766;2023-03-14T00:45:50;8.25;;;2.38;;
51814;SDS011;37874;53.158;6.766;2023-03-14T00:48:17;6.78;;;1.88;;
51814;SDS011;37874;53.158;6.766;2023-03-14T00:50:44;8.73;;;2.50;;
51814;SDS011;37874;53.158;6.766;2023-03-14T00:53:10;8.88;;;2.60;;
51814;SDS011;37874;53.158;6.766;2023-03-14T00:55:36;7.40;;;2.28;;
51814;SDS011;37874;53.158;6.766;2023-03-14T00:58:05;7.55;;;2.20;;
51814;SDS011;37874;53.158;6.766;2023-03-14T01:00:31;7.00;;;2.10;;
51814;SDS011;37874;53.158;6.766;2023-03-14T01:02:57;8.10;;;2.45;;
51814;SDS011;37874;53.158;6.766;2023-03-14T01:05:23;7.65;;;2.17;;
51814;SDS011;37874;53.158;6.766;2023-03-14T01:07:49;6.32;;;2.22;;
51814;SDS011;37874;53.158;6.766;2023-03-14T01:10:15;9.50;;;2.20;;
51814;SDS011;37874;53.158;6.766;2023-03-14T01:12:41;7.78;;;2.13;;
51814;SDS011;37874;53.158;6.766;2023-03-14T01:15:07;7.75;;;2.00;;
51814;SDS011;37874;53.158;6.766;2023-03-14T01:17:33;8.25;;;2.35;;
51814;SDS011;37874;53.158;6.766;2023-03-14T01:19:59;10.00;;;2.50;;
51814;SDS011;37874;53.158;6.766;2023-03-14T01:22:25;9.23;;;2.63;;
51814;SDS011;37874;53.158;6.766;2023-03-14T01:24:51;6.70;;;1.85;;
51814;SDS011;37874;53.158;6.766;2023-03-14T01:27:17;7.38;;;2.08;;
51814;SDS011;37874;53.158;6.766;2023-03-14T01:29:43;6.88;;;2.22;;
51814;SDS011;37874;53.158;6.766;2023-03-14T01:32:08;10.63;;;2.70;;
51814;SDS011;37874;53.158;6.766;2023-03-14T01:34:34;6.45;;;1.92;;
51814;SDS011;37874;53.158;6.766;2023-03-14T01:37:00;6.72;;;2.30;;
51814;SDS011;37874;53.158;6.766;2023-03-14T01:39:25;8.45;;;2.20;;
51814;SDS011;37874;53.158;6.766;2023-03-14T01:41:51;5.45;;;2.10;;
51814;SDS011;37874;53.158;6.766;2023-03-14T01:44:16;7.90;;;2.30;;
51814;SDS011;37874;53.158;6.766;2023-03-14T01:46:43;8.18;;;2.20;;
51814;SDS011;37874;53.158;6.766;2023-03-14T01:51:44;7.60;;;2.22;;
51814;SDS011;37874;53.158;6.766;2023-03-14T01:57:17;6.80;;;2.10;;
51814;SDS011;37874;53.158;6.766;2023-03-14T01:59:55;8.73;;;2.15;;
51814;SDS011;37874;53.158;6.766;2023-03-14T02:02:46;6.82;;;1.98;;
51814;SDS011;37874;53.158;6.766;2023-03-14T02:05:21;7.70;;;2.15;;
51814;SDS011;37874;53.158;6.766;2023-03-14T02:07:50;6.82;;;1.98;;
51814;SDS011;37874;53.158;6.766;2023-03-14T02:10:18;7.47;;;2.15;;
51814;SDS011;37874;53.158;6.766;2023-03-14T02:12:46;7.85;;;2.15;;
51814;SDS011;37874;53.158;6.766;2023-03-14T02:15:13;8.73;;;2.60;;
51814;SDS011;37874;53.158;6.766;2023-03-14T02:17:43;8.02;;;2.38;;
51814;SDS011;37874;53.158;6.766;2023-03-14T02:22:57;7.60;;;1.85;;
51814;SDS011;37874;53.158;6.766;2023-03-14T02:25:38;5.18;;;1.80;;
51814;SDS011;37874;53.158;6.766;2023-03-14T02:28:09;7.03;;;1.77;;
51814;SDS011;37874;53.158;6.766;2023-03-14T02:30:36;6.65;;;1.70;;
51814;SDS011;37874;53.158;6.766;2023-03-14T02:33:06;7.65;;;1.90;;
51814;SDS011;37874;53.158;6.766;2023-03-14T02:35:38;6.28;;;1.75;;
51814;SDS011;37874;53.158;6.766;2023-03-14T02:38:10;7.90;;;1.83;;
51814;SDS011;37874;53.158;6.766;2023-03-14T02:40:47;6.68;;;1.58;;
51814;SDS011;37874;53.158;6.766;2023-03-14T02:43:13;5.85;;;1.60;;
51814;SDS011;37874;53.158;6.766;2023-03-14T02:48:07;5.28;;;1.70;;
51814;SDS011;37874;53.158;6.766;2023-03-14T02:50:37;7.88;;;1.85;;
51814;SDS011;37874;53.158;6.766;2023-03-14T02:53:03;7.55;;;1.95;;
51814;SDS011;37874;53.158;6.766;2023-03-14T02:55:29;5.95;;;1.63;;
51814;SDS011;37874;53.158;6.766;2023-03-14T02:57:54;6.07;;;1.70;;
51814;SDS011;37874;53.158;6.766;2023-03-14T03:00:20;7.20;;;1.65;;
51814;SDS011;37874;53.158;6.766;2023-03-14T03:02:46;5.95;;;1.67;;
51814;SDS011;37874;53.158;6.766;2023-03-14T03:05:12;6.07;;;1.58;;
51814;SDS011;37874;53.158;6.766;2023-03-14T03:07:37;6.28;;;1.60;;
51814;SDS011;37874;53.158;6.766;2023-03-14T03:10:03;7.07;;;1.38;;
51814;SDS011;37874;53.158;6.766;2023-03-14T03:12:29;4.47;;;1.50;;
51814;SDS011;37874;53.158;6.766;2023-03-14T03:14:55;7.45;;;1.50;;
51814;SDS011;37874;53.158;6.766;2023-03-14T03:17:21;4.38;;;1.40;;
51814;SDS011;37874;53.158;6.766;2023-03-14T03:19:46;3.75;;;1.23;;
51814;SDS011;37874;53.158;6.766;2023-03-14T03:22:12;5.32;;;1.50;;
51814;SDS011;37874;53.158;6.766;2023-03-14T03:24:37;5.03;;;1.60;;
51814;SDS011;37874;53.158;6.766;2023-03-14T03:27:03;5.00;;;1.33;;
51814;SDS011;37874;53.158;6.766;2023-03-14T03:29:29;7.22;;;1.55;;
51814;SDS011;37874;53.158;6.766;2023-03-14T03:31:55;5.10;;;1.45;;
51814;SDS011;37874;53.158;6.766;2023-03-14T03:34:20;3.83;;;1.20;;
51814;SDS011;37874;53.158;6.766;2023-03-14T03:36:46;6.25;;;1.50;;
51814;SDS011;37874;53.158;6.766;2023-03-14T03:39:12;5.30;;;1.73;;
51814;SDS011;37874;53.158;6.766;2023-03-14T03:41:37;4.25;;;1.38;;
51814;SDS011;37874;53.158;6.766;2023-03-14T03:44:03;4.85;;;1.35;;
51814;SDS011;37874;53.158;6.766;2023-03-14T03:46:30;4.53;;;1.50;;
51814;SDS011;37874;53.158;6.766;2023-03-14T03:48:57;5.93;;;1.67;;
51814;SDS011;37874;53.158;6.766;2023-03-14T03:51:24;6.10;;;1.45;;
51814;SDS011;37874;53.158;6.766;2023-03-14T03:53:50;4.22;;;1.38;;
51814;SDS011;37874;53.158;6.766;2023-03-14T03:56:16;4.35;;;1.58;;
51814;SDS011;37874;53.158;6.766;2023-03-14T03:58:42;3.35;;;1.08;;
51814;SDS011;37874;53.158;6.766;2023-03-14T04:01:08;5.25;;;1.50;;
51814;SDS011;37874;53.158;6.766;2023-03-14T04:03:35;5.97;;;1.60;;
51814;SDS011;37874;53.158;6.766;2023-03-14T04:06:12;4.88;;;1.58;;
51814;SDS011;37874;53.158;6.766;2023-03-14T04:08:38;5.32;;;1.73;;
51814;SDS011;37874;53.158;6.766;2023-03-14T04:11:05;5.28;;;1.40;;
51814;SDS011;37874;53.158;6.766;2023-03-14T04:13:31;5.80;;;1.30;;
51814;SDS011;37874;53.158;6.766;2023-03-14T04:15:57;5.88;;;1.58;;
51814;SDS011;37874;53.158;6.766;2023-03-14T04:18:22;5.22;;;1.52;;
51814;SDS011;37874;53.158;6.766;2023-03-14T04:20:52;5.53;;;1.40;;
51814;SDS011;37874;53.158;6.766;2023-03-14T04:23:22;5.18;;;1.60;;
51814;SDS011;37874;53.158;6.766;2023-03-14T04:25:51;5.47;;;1.30;;
51814;SDS011;37874;53.158;6.766;2023-03-14T04:28:18;6.50;;;1.80;;
51814;SDS011;37874;53.158;6.766;2023-03-14T04:30:44;5.07;;;1.75;;
51814;SDS011;37874;53.158;6.766;2023-03-14T04:33:09;5.65;;;1.17;;
51814;SDS011;37874;53.158;6.766;2023-03-14T04:35:37;3.90;;;1.40;;
51814;SDS011;37874;53.158;6.766;2023-03-14T04:38:03;5.25;;;1.70;;
51814;SDS011;37874;53.158;6.766;2023-03-14T04:40:29;4.55;;;1.17;;
51814;SDS011;37874;53.158;6.766;2023-03-14T04:42:54;5.30;;;1.42;;
51814;SDS011;37874;53.158;6.766;2023-03-14T04:45:20;2.90;;;1.10;;
51814;SDS011;37874;53.158;6.766;2023-03-14T04:47:45;4.63;;;1.30;;
51814;SDS011;37874;53.158;6.766;2023-03-14T04:50:11;3.97;;;1.17;;
51814;SDS011;37874;53.158;6.766;2023-03-14T04:52:37;6.60;;;1.38;;
51814;SDS011;37874;53.158;6.766;2023-03-14T04:55:02;5.97;;;1.48;;
51814;SDS011;37874;53.158;6.766;2023-03-14T04:57:28;5.63;;;1.25;;
51814;SDS011;37874;53.158;6.766;2023-03-14T04:59:54;4.53;;;1.35;;
51814;SDS011;37874;53.158;6.766;2023-03-14T05:02:19;4.93;;;1.30;;
51814;SDS011;37874;53.158;6.766;2023-03-14T05:04:45;3.88;;;1.38;;
51814;SDS011;37874;53.158;6.766;2023-03-14T05:07:10;5.22;;;1.40;;
51814;SDS011;37874;53.158;6.766;2023-03-14T05:09:36;3.50;;;1.05;;
51814;SDS011;37874;53.158;6.766;2023-03-14T05:12:02;5.80;;;1.33;;
51814;SDS011;37874;53.158;6.766;2023-03-14T05:14:27;3.97;;;1.33;;
51814;SDS011;37874;53.158;6.766;2023-03-14T05:16:53;2.20;;;0.80;;
51814;SDS011;37874;53.158;6.766;2023-03-14T05:19:19;3.63;;;1.20;;
51814;SDS011;37874;53.158;6.766;2023-03-14T05:21:44;4.78;;;1.27;;
51814;SDS011;37874;53.158;6.766;2023-03-14T05:24:10;3.97;;;1.30;;
51814;SDS011;37874;53.158;6.766;2023-03-14T05:26:35;4.78;;;1.30;;
51814;SDS011;37874;53.158;6.766;2023-03-14T05:29:01;3.83;;;1.30;;
51814;SDS011;37874;53.158;6.766;2023-03-14T05:31:26;4.13;;;1.08;;
51814;SDS011;37874;53.158;6.766;2023-03-14T05:33:52;4.97;;;1.30;;
51814;SDS011;37874;53.158;6.766;2023-03-14T05:36:18;8.63;;;1.63;;
51814;SDS011;37874;53.158;6.766;2023-03-14T05:38:43;3.70;;;1.13;;
51814;SDS011;37874;53.158;6.766;2023-03-14T05:41:09;5.35;;;1.30;;
51814;SDS011;37874;53.158;6.766;2023-03-14T05:43:35;5.93;;;1.30;;
51814;SDS011;37874;53.158;6.766;2023-03-14T05:46:00;4.70;;;1.08;;
51814;SDS011;37874;53.158;6.766;2023-03-14T05:48:26;4.25;;;1.30;;
51814;SDS011;37874;53.158;6.766;2023-03-14T05:50:58;4.38;;;1.33;;
51814;SDS011;37874;53.158;6.766;2023-03-14T05:53:24;3.70;;;1.00;;
51814;SDS011;37874;53.158;6.766;2023-03-14T05:55:51;2.67;;;1.20;;
51814;SDS011;37874;53.158;6.766;2023-03-14T05:58:17;3.85;;;1.30;;
51814;SDS011;37874;53.158;6.766;2023-03-14T06:00:43;3.50;;;1.20;;
51814;SDS011;37874;53.158;6.766;2023-03-14T06:03:09;3.42;;;1.10;;
51814;SDS011;37874;53.158;6.766;2023-03-14T06:05:34;3.58;;;1.13;;
51814;SDS011;37874;53.158;6.766;2023-03-14T06:08:00;3.90;;;1.10;;
51814;SDS011;37874;53.158;6.766;2023-03-14T06:10:26;3.17;;;1.30;;
51814;SDS011;37874;53.158;6.766;2023-03-14T06:12:51;3.13;;;1.20;;
51814;SDS011;37874;53.158;6.766;2023-03-14T06:15:17;4.97;;;1.38;;
51814;SDS011;37874;53.158;6.766;2023-03-14T06:17:42;4.15;;;1.30;;
51814;SDS011;37874;53.158;6.766;2023-03-14T06:20:09;4.10;;;1.20;;
51814;SDS011;37874;53.158;6.766;2023-03-14T06:22:36;4.10;;;1.20;;
51814;SDS011;37874;53.158;6.766;2023-03-14T06:25:03;4.65;;;1.33;;
51814;SDS011;37874;53.158;6.766;2023-03-14T06:27:29;4.28;;;1.42;;
51814;SDS011;37874;53.158;6.766;2023-03-14T06:29:55;3.50;;;1.10;;
51814;SDS011;37874;53.158;6.766;2023-03-14T06:32:21;3.88;;;1.05;;
51814;SDS011;37874;53.158;6.766;2023-03-14T06:34:46;3.25;;;1.20;;
51814;SDS011;37874;53.158;6.766;2023-03-14T06:37:12;4.05;;;1.30;;
51814;SDS011;37874;53.158;6.766;2023-03-14T06:39:37;3.22;;;1.17;;
51814;SDS011;37874;53.158;6.766;2023-03-14T06:42:04;4.15;;;1.45;;
51814;SDS011;37874;53.158;6.766;2023-03-14T06:44:30;3.47;;;1.15;;
51814;SDS011;37874;53.158;6.766;2023-03-14T06:46:55;3.38;;;1.13;;
51814;SDS011;37874;53.158;6.766;2023-03-14T06:49:21;3.40;;;1.10;;
51814;SDS011;37874;53.158;6.766;2023-03-14T06:51:47;2.42;;;0.95;;
51814;SDS011;37874;53.158;6.766;2023-03-14T06:54:12;2.72;;;1.00;;
51814;SDS011;37874;53.158;6.766;2023-03-14T06:56:38;2.53;;;0.88;;
51814;SDS011;37874;53.158;6.766;2023-03-14T06:59:04;3.90;;;0.90;;
51814;SDS011;37874;53.158;6.766;2023-03-14T07:01:29;3.28;;;1.13;;
51814;SDS011;37874;53.158;6.766;2023-03-14T07:03:57;3.15;;;0.95;;
51814;SDS011;37874;53.158;6.766;2023-03-14T07:06:23;3.13;;;0.75;;
51814;SDS011;37874;53.158;6.766;2023-03-14T07:08:50;3.70;;;1.05;;
51814;SDS011;37874;53.158;6.766;2023-03-14T07:11:15;2.50;;;0.70;;
51814;SDS011;37874;53.158;6.766;2023-03-14T07:13:41;2.00;;;0.75;;
51814;SDS011;37874;53.158;6.766;2023-03-14T07:16:07;3.50;;;1.02;;
51814;SDS011;37874;53.158;6.766;2023-03-14T07:18:33;4.45;;;0.93;;
51814;SDS011;37874;53.158;6.766;2023-03-14T07:20:59;3.53;;;1.00;;
51814;SDS011;37874;53.158;6.766;2023-03-14T07:23:25;3.38;;;1.05;;
51814;SDS011;37874;53.158;6.766;2023-03-14T07:25:50;2.35;;;0.80;;
51814;SDS011;37874;53.158;6.766;2023-03-14T07:28:18;2.72;;;0.80;;
51814;SDS011;37874;53.158;6.766;2023-03-14T07:30:45;2.35;;;0.77;;
51814;SDS011;37874;53.158;6.766;2023-03-14T07:33:12;3.58;;;0.90;;
51814;SDS011;37874;53.158;6.766;2023-03-14T07:35:37;4.10;;;1.10;;
51814;SDS011;37874;53.158;6.766;2023-03-14T07:38:03;3.03;;;0.73;;
51814;SDS011;37874;53.158;6.766;2023-03-14T07:40:29;2.13;;;0.63;;
51814;SDS011;37874;53.158;6.766;2023-03-14T07:42:54;4.32;;;1.10;;
51814;SDS011;37874;53.158;6.766;2023-03-14T07:45:20;2.70;;;0.80;;
51814;SDS011;37874;53.158;6.766;2023-03-14T07:47:46;2.25;;;0.80;;
51814;SDS011;37874;53.158;6.766;2023-03-14T07:50:12;2.83;;;0.75;;
51814;SDS011;37874;53.158;6.766;2023-03-14T07:52:37;3.90;;;0.80;;
51814;SDS011;37874;53.158;6.766;2023-03-14T07:55:03;2.38;;;0.65;;
51814;SDS011;37874;53.158;6.766;2023-03-14T07:57:29;2.10;;;0.60;;
51814;SDS011;37874;53.158;6.766;2023-03-14T07:59:54;2.25;;;0.80;;
51814;SDS011;37874;53.158;6.766;2023-03-14T08:02:20;2.13;;;0.60;;
51814;SDS011;37874;53.158;6.766;2023-03-14T08:04:47;2.85;;;1.08;;
51814;SDS011;37874;53.158;6.766;2023-03-14T08:07:13;2.08;;;0.68;;
51814;SDS011;37874;53.158;6.766;2023-03-14T08:09:39;2.00;;;0.60;;
51814;SDS011;37874;53.158;6.766;2023-03-14T08:12:05;2.35;;;0.70;;
51814;SDS011;37874;53.158;6.766;2023-03-14T08:14:31;4.63;;;1.02;;
51814;SDS011;37874;53.158;6.766;2023-03-14T08:16:56;2.17;;;0.60;;
51814;SDS011;37874;53.158;6.766;2023-03-14T08:19:22;2.78;;;0.60;;
51814;SDS011;37874;53.158;6.766;2023-03-14T08:21:47;2.22;;;0.57;;
51814;SDS011;37874;53.158;6.766;2023-03-14T08:24:13;4.78;;;0.98;;
51814;SDS011;37874;53.158;6.766;2023-03-14T08:26:39;1.27;;;0.50;;
51814;SDS011;37874;53.158;6.766;2023-03-14T08:29:04;2.80;;;0.63;;
51814;SDS011;37874;53.158;6.766;2023-03-14T08:31:30;2.85;;;0.52;;
51814;SDS011;37874;53.158;6.766;2023-03-14T08:33:58;1.67;;;0.60;;
51814;SDS011;37874;53.158;6.766;2023-03-14T08:36:24;1.48;;;0.50;;
51814;SDS011;37874;53.158;6.766;2023-03-14T08:38:50;1.40;;;0.40;;
51814;SDS011;37874;53.158;6.766;2023-03-14T08:41:15;1.63;;;0.50;;
51814;SDS011;37874;53.158;6.766;2023-03-14T08:43:41;1.33;;;0.45;;
51814;SDS011;37874;53.158;6.766;2023-03-14T08:46:07;1.52;;;0.60;;
51814;SDS011;37874;53.158;6.766;2023-03-14T08:48:32;2.45;;;0.80;;
51814;SDS011;37874;53.158;6.766;2023-03-14T08:51:31;2.30;;;0.50;;
51814;SDS011;37874;53.158;6.766;2023-03-14T08:53:50;1.77;;;0.50;;
51814;SDS011;37874;53.158;6.766;2023-03-14T08:56:16;2.45;;;0.68;;
51814;SDS011;37874;53.158;6.766;2023-03-14T08:58:41;1.98;;;0.52;;
51814;SDS011;37874;53.158;6.766;2023-03-14T09:01:08;3.17;;;0.50;;
51814;SDS011;37874;53.158;6.766;2023-03-14T09:03:35;2.25;;;0.68;;
51814;SDS011;37874;53.158;6.766;2023-03-14T09:06:01;1.35;;;0.60;;
51814;SDS011;37874;53.158;6.766;2023-03-14T09:08:28;1.85;;;0.60;;
51814;SDS011;37874;53.158;6.766;2023-03-14T09:10:54;1.98;;;0.52;;
51814;SDS011;37874;53.158;6.766;2023-03-14T09:13:19;2.25;;;0.65;;
51814;SDS011;37874;53.158;6.766;2023-03-14T09:15:49;3.30;;;0.50;;
51814;SDS011;37874;53.158;6.766;2023-03-14T09:18:31;1.40;;;0.43;;
51814;SDS011;37874;53.158;6.766;2023-03-14T09:20:57;3.58;;;0.50;;
51814;SDS011;37874;53.158;6.766;2023-03-14T09:23:23;2.65;;;0.70;;
51814;SDS011;37874;53.158;6.766;2023-03-14T09:25:48;2.47;;;0.77;;
51814;SDS011;37874;53.158;6.766;2023-03-14T09:28:14;3.90;;;0.60;;
51814;SDS011;37874;53.158;6.766;2023-03-14T09:30:39;2.63;;;0.60;;
51814;SDS011;37874;53.158;6.766;2023-03-14T09:33:05;3.17;;;0.65;;
51814;SDS011;37874;53.158;6.766;2023-03-14T09:35:31;1.48;;;0.50;;
51814;SDS011;37874;53.158;6.766;2023-03-14T09:37:59;2.00;;;0.65;;
51814;SDS011;37874;53.158;6.766;2023-03-14T09:40:24;2.28;;;0.60;;
51814;SDS011;37874;53.158;6.766;2023-03-14T09:42:58;2.78;;;0.77;;
51814;SDS011;37874;53.158;6.766;2023-03-14T09:45:28;2.92;;;0.70;;
51814;SDS011;37874;53.158;6.766;2023-03-14T09:50:27;3.83;;;0.50;;
51814;SDS011;37874;53.158;6.766;2023-03-14T09:53:09;4.95;;;0.90;;
51814;SDS011;37874;53.158;6.766;2023-03-14T09:55:41;4.13;;;1.05;;
51814;SDS011;37874;53.158;6.766;2023-03-14T09:58:16;2.72;;;0.80;;
51814;SDS011;37874;53.158;6.766;2023-03-14T10:00:44;4.80;;;1.10;;
51814;SDS011;37874;53.158;6.766;2023-03-14T10:05:39;3.88;;;0.80;;
51814;SDS011;37874;53.158;6.766;2023-03-14T10:08:06;2.83;;;0.70;;
51814;SDS011;37874;53.158;6.766;2023-03-14T10:10:34;3.05;;;0.57;;
51814;SDS011;37874;53.158;6.766;2023-03-14T10:15:38;2.83;;;0.73;;
51814;SDS011;37874;53.158;6.766;2023-03-14T10:18:04;4.10;;;1.00;;
51814;SDS011;37874;53.158;6.766;2023-03-14T10:20:41;3.85;;;0.93;;
51814;SDS011;37874;53.158;6.766;2023-03-14T10:25:37;3.35;;;1.02;;
51814;SDS011;37874;53.158;6.766;2023-03-14T10:28:24;3.53;;;0.80;;
51814;SDS011;37874;53.158;6.766;2023-03-14T10:30:51;2.55;;;0.80;;
51814;SDS011;37874;53.158;6.766;2023-03-14T10:35:43;3.00;;;0.90;;
51814;SDS011;37874;53.158;6.766;2023-03-14T10:38:13;3.35;;;0.93;;
51814;SDS011;37874;53.158;6.766;2023-03-14T10:40:51;4.68;;;1.20;;
51814;SDS011;37874;53.158;6.766;2023-03-14T10:43:21;6.13;;;1.13;;
51814;SDS011;37874;53.158;6.766;2023-03-14T10:48:35;4.10;;;1.00;;
51814;SDS011;37874;53.158;6.766;2023-03-14T10:51:06;4.15;;;0.93;;
51814;SDS011;37874;53.158;6.766;2023-03-14T10:53:39;3.33;;;0.85;;
51814;SDS011;37874;53.158;6.766;2023-03-14T10:56:13;7.10;;;1.10;;
51814;SDS011;37874;53.158;6.766;2023-03-14T10:58:49;4.47;;;0.90;;
51814;SDS011;37874;53.158;6.766;2023-03-14T11:04:18;5.72;;;1.52;;
51814;SDS011;37874;53.158;6.766;2023-03-14T11:07:04;3.85;;;1.02;;
51814;SDS011;37874;53.158;6.766;2023-03-14T11:12:19;5.05;;;1.20;;
51814;SDS011;37874;53.158;6.766;2023-03-14T11:15:11;3.42;;;0.88;;
51814;SDS011;37874;53.158;6.766;2023-03-14T11:20:33;3.40;;;0.90;;
51814;SDS011;37874;53.158;6.766;2023-03-14T11:23:20;4.15;;;1.10;;
51814;SDS011;37874;53.158;6.766;2023-03-14T11:25:52;4.85;;;0.90;;
51814;SDS011;37874;53.158;6.766;2023-03-14T11:28:39;5.32;;;1.02;;
51814;SDS011;37874;53.158;6.766;2023-03-14T11:34:02;3.85;;;1.00;;
51814;SDS011;37874;53.158;6.766;2023-03-14T11:36:36;3.65;;;0.93;;
51814;SDS011;37874;53.158;6.766;2023-03-14T11:39:29;3.83;;;1.05;;
51814;SDS011;37874;53.158;6.766;2023-03-14T11:42:07;4.13;;;0.98;;
51814;SDS011;37874;53.158;6.766;2023-03-14T11:44:41;3.03;;;0.77;;
51814;SDS011;37874;53.158;6.766;2023-03-14T11:47:31;3.80;;;1.00;;
51814;SDS011;37874;53.158;6.766;2023-03-14T11:50:19;2.63;;;0.85;;
51814;SDS011;37874;53.158;6.766;2023-03-14T11:53:04;4.88;;;1.10;;
51814;SDS011;37874;53.158;6.766;2023-03-14T11:55:35;3.53;;;0.90;;
51814;SDS011;37874;53.158;6.766;2023-03-14T11:58:22;3.70;;;0.98;;
51814;SDS011;37874;53.158;6.766;2023-03-14T12:00:51;3.70;;;0.88;;
51814;SDS011;37874;53.158;6.766;2023-03-14T12:03:33;4.95;;;0.90;;
51814;SDS011;37874;53.158;6.766;2023-03-14T12:06:19;2.80;;;0.80;;
51814;SDS011;37874;53.158;6.766;2023-03-14T12:08:57;2.75;;;0.70;;
51814;SDS011;37874;53.158;6.766;2023-03-14T12:13:53;3.03;;;0.85;;
51814;SDS011;37874;53.158;6.766;2023-03-14T12:18:47;3.92;;;0.90;;
51814;SDS011;37874;53.158;6.766;2023-03-14T12:21:13;2.05;;;0.60;;
51814;SDS011;37874;53.158;6.766;2023-03-14T12:26:17;3.97;;;0.90;;
51814;SDS011;37874;53.158;6.766;2023-03-14T14:27:32;3.00;;;0.77;;
51814;SDS011;37874;53.158;6.766;2023-03-14T14:30:06;3.58;;;0.73;;
51814;SDS011;37874;53.158;6.766;2023-03-14T14:32:50;3.30;;;0.80;;
51814;SDS011;37874;53.158;6.766;2023-03-14T14:35:23;4.40;;;0.70;;
51814;SDS011;37874;53.158;6.766;2023-03-14T14:37:57;3.35;;;0.85;;
51814;SDS011;37874;53.158;6.766;2023-03-14T14:40:24;3.60;;;0.88;;
51814;SDS011;37874;53.158;6.766;2023-03-14T14:42:52;4.32;;;0.60;;
51814;SDS011;37874;53.158;6.766;2023-03-14T14:45:19;2.65;;;0.65;;
51814;SDS011;37874;53.158;6.766;2023-03-14T14:47:51;3.70;;;0.90;;
51814;SDS011;37874;53.158;6.766;2023-03-14T14:50:21;3.65;;;0.70;;
51814;SDS011;37874;53.158;6.766;2023-03-14T14:52:59;3.05;;;0.82;;
51814;SDS011;37874;53.158;6.766;2023-03-14T14:55:39;2.67;;;0.75;;
51814;SDS011;37874;53.158;6.766;2023-03-14T14:58:20;3.65;;;0.75;;
51814;SDS011;37874;53.158;6.766;2023-03-14T15:00:52;3.42;;;0.80;;
51814;SDS011;37874;53.158;6.766;2023-03-14T15:03:21;2.75;;;0.55;;
51814;SDS011;37874;53.158;6.766;2023-03-14T15:05:46;3.75;;;0.90;;
51814;SDS011;37874;53.158;6.766;2023-03-14T15:08:12;2.90;;;0.75;;
51814;SDS011;37874;53.158;6.766;2023-03-14T15:10:38;3.47;;;0.80;;
51814;SDS011;37874;53.158;6.766;2023-03-14T15:13:04;2.75;;;0.70;;
51814;SDS011;37874;53.158;6.766;2023-03-14T15:15:30;4.15;;;0.93;;
51814;SDS011;37874;53.158;6.766;2023-03-14T15:17:56;4.40;;;1.70;;
51814;SDS011;37874;53.158;6.766;2023-03-14T15:20:21;6.13;;;2.00;;
51814;SDS011;37874;53.158;6.766;2023-03-14T15:22:48;7.40;;;1.70;;
51814;SDS011;37874;53.158;6.766;2023-03-14T15:25:15;7.30;;;2.45;;
51814;SDS011;37874;53.158;6.766;2023-03-14T15:27:41;7.38;;;2.30;;
51814;SDS011;37874;53.158;6.766;2023-03-14T15:30:11;4.25;;;1.83;;
51814;SDS011;37874;53.158;6.766;2023-03-14T15:32:37;6.70;;;2.40;;
51814;SDS011;37874;53.158;6.766;2023-03-14T15:35:03;7.30;;;2.35;;
51814;SDS011;37874;53.158;6.766;2023-03-14T15:37:29;7.00;;;2.55;;
51814;SDS011;37874;53.158;6.766;2023-03-14T15:39:55;6.78;;;2.85;;
51814;SDS011;37874;53.158;6.766;2023-03-14T15:42:23;5.95;;;2.10;;
51814;SDS011;37874;53.158;6.766;2023-03-14T15:44:49;8.98;;;3.00;;
51814;SDS011;37874;53.158;6.766;2023-03-14T15:47:14;8.30;;;3.22;;
51814;SDS011;37874;53.158;6.766;2023-03-14T15:49:40;9.50;;;3.05;;
51814;SDS011;37874;53.158;6.766;2023-03-14T15:52:06;8.27;;;3.22;;
51814;SDS011;37874;53.158;6.766;2023-03-14T15:54:33;5.88;;;2.65;;
51814;SDS011;37874;53.158;6.766;2023-03-14T15:56:59;10.40;;;3.25;;
51814;SDS011;37874;53.158;6.766;2023-03-14T15:59:25;7.50;;;2.95;;
51814;SDS011;37874;53.158;6.766;2023-03-14T16:01:52;9.48;;;3.13;;
51814;SDS011;37874;53.158;6.766;2023-03-14T16:04:18;13.73;;;3.65;;
51814;SDS011;37874;53.158;6.766;2023-03-14T16:06:44;8.52;;;3.28;;
51814;SDS011;37874;53.158;6.766;2023-03-14T16:09:10;7.03;;;3.00;;
51814;SDS011;37874;53.158;6.766;2023-03-14T16:11:37;7.78;;;3.00;;
51814;SDS011;37874;53.158;6.766;2023-03-14T16:14:03;9.32;;;2.83;;
51814;SDS011;37874;53.158;6.766;2023-03-14T16:16:28;7.50;;;2.80;;
51814;SDS011;37874;53.158;6.766;2023-03-14T16:18:54;7.85;;;2.90;;
51814;SDS011;37874;53.158;6.766;2023-03-14T16:21:20;7.43;;;2.72;;
51814;SDS011;37874;53.158;6.766;2023-03-14T16:23:47;9.27;;;3.20;;
51814;SDS011;37874;53.158;6.766;2023-03-14T16:26:13;8.77;;;2.85;;
51814;SDS011;37874;53.158;6.766;2023-03-14T16:28:41;11.25;;;2.90;;
51814;SDS011;37874;53.158;6.766;2023-03-14T16:31:08;8.52;;;2.85;;
51814;SDS011;37874;53.158;6.766;2023-03-14T16:33:41;7.70;;;2.77;;
51814;SDS011;37874;53.158;6.766;2023-03-14T16:36:09;6.95;;;2.63;;
51814;SDS011;37874;53.158;6.766;2023-03-14T16:38:36;9.18;;;2.97;;
51814;SDS011;37874;53.158;6.766;2023-03-14T16:41:08;6.95;;;2.72;;
51814;SDS011;37874;53.158;6.766;2023-03-14T16:43:37;8.20;;;2.78;;
51814;SDS011;37874;53.158;6.766;2023-03-14T16:46:03;6.05;;;2.60;;
51814;SDS011;37874;53.158;6.766;2023-03-14T16:48:31;6.82;;;2.72;;
51814;SDS011;37874;53.158;6.766;2023-03-14T16:50:56;8.05;;;2.53;;
51814;SDS011;37874;53.158;6.766;2023-03-14T16:53:22;8.02;;;2.60;;
51814;SDS011;37874;53.158;6.766;2023-03-14T16:55:49;6.78;;;2.40;;
51814;SDS011;37874;53.158;6.766;2023-03-14T16:58:15;6.60;;;2.50;;
51814;SDS011;37874;53.158;6.766;2023-03-14T17:00:43;7.47;;;2.63;;
51814;SDS011;37874;53.158;6.766;2023-03-14T17:03:09;8.73;;;2.90;;
51814;SDS011;37874;53.158;6.766;2023-03-14T17:05:36;7.82;;;2.50;;
51814;SDS011;37874;53.158;6.766;2023-03-14T17:08:02;6.88;;;2.90;;
51814;SDS011;37874;53.158;6.766;2023-03-14T17:10:28;7.38;;;2.65;;
51814;SDS011;37874;53.158;6.766;2023-03-14T17:12:54;7.57;;;2.47;;
51814;SDS011;37874;53.158;6.766;2023-03-14T17:15:20;5.70;;;2.05;;
51814;SDS011;37874;53.158;6.766;2023-03-14T17:17:45;6.18;;;2.10;;
51814;SDS011;37874;53.158;6.766;2023-03-14T17:20:11;7.55;;;2.13;;
51814;SDS011;37874;53.158;6.766;2023-03-14T17:22:37;6.78;;;2.30;;
51814;SDS011;37874;53.158;6.766;2023-03-14T17:25:03;6.93;;;2.45;;
51814;SDS011;37874;53.158;6.766;2023-03-14T17:27:29;6.40;;;2.28;;
51814;SDS011;37874;53.158;6.766;2023-03-14T17:29:54;6.47;;;2.15;;
51814;SDS011;37874;53.158;6.766;2023-03-14T17:32:20;5.82;;;1.88;;
51814;SDS011;37874;53.158;6.766;2023-03-14T17:34:45;6.95;;;2.25;;
51814;SDS011;37874;53.158;6.766;2023-03-14T17:37:11;7.05;;;2.47;;